Time;durP1;ratioP1;P1;durP2;ratioP2;P2;SDS_P1;SDS_P2;PMS_P1;PMS_P2;Temp;Humidity;BMP_temperature;BMP_pressure;BME280_temperature;BME280_humidity;BME280_pressure;Samples;Min_cycle;Max_cycle;Signal;HPM_P1;HPM_P2
2024/04/10 00:01:28;;;;;;;;;;;;;;;;;;5456338;26;20367;-80
2024/04/10 00:03:53;;;;;;;;;;;;;;;;;;5423828;26;20445;-80
2024/04/10 00:06:18;;;;;;;;;;;;;;;;;;5455546;26;19934;-80
2024/04/10 00:08:43;;;;;;;;;;;;;;;;;;5423599;26;19928;-80
2024/04/10 00:11:08;;;;;;;;;;;;;;;;;;5423863;26;19936;-79
2024/04/10 00:13:33;;;;;;;;;;;;;;;;;;5422440;26;20030;-80
2024/04/10 00:15:59;;;;;;;;;;;;;;;;;;5454956;26;19937;-79
2024/04/10 00:18:24;;;;;;;;;;;;;;;;;;5455333;26;19929;-81
2024/04/10 00:20:49;;;;;;;;;;;;;;;;;;5423300;26;19936;-80
2024/04/10 00:23:14;;;;;;;;;;;;;;;;;;5422167;26;19936;-79
2024/04/10 00:25:39;;;;;;;;;;;;;;;;;;5455329;26;19940;-79
2024/04/10 00:28:04;;;;;;;;;;;;;;;;;;5425176;26;19940;-80
2024/04/10 00:30:29;;;;;;;;;;;;;;;;;;5458240;26;19939;-79
2024/04/10 00:32:54;;;;;;;;;;;;;;;;;;5457521;26;19928;-80
2024/04/10 00:35:20;;;;;;;;;;;;;;;;;;5425739;26;19935;-80
2024/04/10 00:37:45;;;;;;;;;;;;;;;;;;5457683;26;19928;-80
2024/04/10 00:40:10;;;;;;;;;;;;;;;;;;5426629;26;19938;-80
2024/04/10 00:42:35;;;;;;;;;;;;;;;;;;5425493;26;19932;-80
2024/04/10 00:45:00;;;;;;;;;;;;;;;;;;5426108;26;19928;-79
2024/04/10 00:47:26;;;;;;;;;;;;;;;;;;5426359;26;19943;-79
2024/04/10 00:49:51;;;;;;;;;;;;;;;;;;5458060;26;19951;-80
2024/04/10 00:52:16;;;;;;;;;;;;;;;;;;5457762;26;19936;-79
2024/04/10 00:54:41;;;;;;;;;;;;;;;;;;5456627;26;20382;-80
2024/04/10 00:57:06;;;;;;;;;;;;;;;;;;5457172;26;20275;-79
2024/04/10 00:59:31;;;;;;;;;;;;;;;;;;5425899;26;19937;-80
2024/04/10 01:01:56;;;;;;;;;;;;;;;;;;5457792;26;19940;-79
2024/04/10 01:04:21;;;;;;;;;;;;;;;;;;5425320;26;20142;-80
2024/04/10 01:06:47;;;;;;;;;;;;;;;;;;5457799;26;19935;-79
2024/04/10 01:09:12;;;;;;;;;;;;;;;;;;5457372;26;19928;-80
2024/04/10 01:11:37;;;;;;;;;;;;;;;;;;5425729;26;19992;-79
2024/04/10 01:14:02;;;;;;;;;;;;;;;;;;5424254;26;20005;-80
2024/04/10 01:16:27;;;;;;;;;;;;;;;;;;5457525;26;20271;-79
2024/04/10 01:18:53;;;;;;;;;;;;;;;;;;5457078;26;19932;-80
2024/04/10 01:21:18;;;;;;;;;;;;;;;;;;5457847;26;19928;-80
2024/04/10 01:23:43;;;;;;;;;;;;;;;;;;5424912;26;20002;-80
2024/04/10 01:26:08;;;;;;;;;;;;;;;;;;5425231;26;19932;-80
2024/04/10 01:28:33;;;;;;;;;;;;;;;;;;5456523;26;20447;-80
2024/04/10 01:30:58;;;;;;;;;;;;;;;;;;5456843;26;19936;-80
2024/04/10 01:33:24;;;;;;;;;;;;;;;;;;5456183;26;19935;-80
2024/04/10 01:35:49;;;;;;;;;;;;;;;;;;5425458;26;19928;-80
2024/04/10 01:38:14;;;;;;;;;;;;;;;;;;5456258;26;19936;-80
2024/04/10 01:40:39;;;;;;;;;;;;;;;;;;5457441;26;20332;-80
2024/04/10 01:43:04;;;;;;;;;;;;;;;;;;5456479;26;19940;-80
2024/04/10 01:45:29;;;;;;;;;;;;;;;;;;5456988;26;19929;-80
2024/04/10 01:47:55;;;;;;;;;;;;;;;;;;5457050;26;20279;-80
2024/04/10 01:50:20;;;;;;;;;;;;;;;;;;5425291;26;19937;-80
2024/04/10 01:52:45;;;;;;;;;;;;;;;;;;5455782;26;20436;-80
2024/04/10 01:55:10;;;;;;;;;;;;;;;;;;5457409;26;19928;-80
2024/04/10 01:57:35;;;;;;;;;;;;;;;;;;5456430;26;19929;-79
2024/04/10 02:00:00;;;;;;;;;;;;;;;;;;5423036;26;19928;-78
2024/04/10 02:02:26;;;;;;;;;;;;;;;;;;5454195;26;19935;-79
2024/04/10 02:04:51;;;;;;;;;;;;;;;;;;5455170;26;19935;-78
2024/04/10 02:07:16;;;;;;;;;;;;;;;;;;5423145;26;19928;-80
2024/04/10 02:09:41;;;;;;;;;;;;;;;;;;5420695;26;19941;-78
2024/04/10 02:12:06;;;;;;;;;;;;;;;;;;5454629;26;19997;-79
2024/04/10 02:14:31;;;;;;;;;;;;;;;;;;5455012;26;19940;-78
2024/04/10 02:16:56;;;;;;;;;;;;;;;;;;5455356;26;19998;-79
2024/04/10 02:19:21;;;;;;;;;;;;;;;;;;5454852;26;20366;-78
2024/04/10 02:21:47;;;;;;;;;;;;;;;;;;5456243;26;20269;-80
2024/04/10 02:24:12;;;;;;;;;;;;;;;;;;5455047;26;20077;-78
2024/04/10 02:26:37;;;;;;;;;;;;;;;;;;5423577;26;19929;-78
2024/04/10 02:29:02;;;;;;;;;;;;;;;;;;5423330;26;19933;-79
2024/04/10 02:31:27;;;;;;;;;;;;;;;;;;5455559;26;19928;-80
2024/04/10 02:33:52;;;;;;;;;;;;;;;;;;5454612;26;19939;-80
2024/04/10 02:36:17;;;;;;;;;;;;;;;;;;5455296;26;19928;-80
2024/04/10 02:38:43;;;;;;;;;;;;;;;;;;5425372;26;19928;-80
2024/04/10 02:41:08;;;;;;;;;;;;;;;;;;5425582;26;19929;-80
2024/04/10 02:43:33;;;;;;;;;;;;;;;;;;5455717;26;20679;-80
2024/04/10 02:45:58;;;;;;;;;;;;;;;;;;5459113;26;19935;-80
2024/04/10 02:48:23;;;;;;;;;;;;;;;;;;5457461;26;19929;-80
2024/04/10 02:50:48;;;;;;;;;;;;;;;;;;5455667;26;19929;-80
2024/04/10 02:53:13;;;;;;;;;;;;;;;;;;5455824;26;19941;-80
2024/04/10 02:55:38;;;;;;;;;;;;;;;;;;5456308;26;19928;-80
2024/04/10 02:58:04;;;;;;;;;;;;;;;;;;5423773;26;19940;-80
2024/04/10 03:00:29;;;;;;;;;;;;;;;;;;5455982;26;19928;-80
2024/04/10 03:02:54;;;;;;;;;;;;;;;;;;5455895;26;19936;-80
2024/04/10 03:05:19;;;;;;;;;;;;;;;;;;5455834;26;19929;-79
2024/04/10 03:07:44;;;;;;;;;;;;;;;;;;5455549;26;19992;-77
2024/04/10 03:10:09;;;;;;;;;;;;;;;;;;5422936;26;19929;-81
2024/04/10 03:12:34;;;;;;;;;;;;;;;;;;5422918;26;19936;-80
2024/04/10 03:15:00;;;;;;;;;;;;;;;;;;5423189;26;19936;-81
2024/04/10 03:17:25;;;;;;;;;;;;;;;;;;5456207;26;19928;-80
2024/04/10 03:19:50;;;;;;;;;;;;;;;;;;5423768;26;19938;-80
2024/04/10 03:22:16;;;;;;;;;;;;;;;;;;5423227;26;20685;-80
2024/04/10 03:24:41;;;;;;;;;;;;;;;;;;5455176;26;19940;-80
2024/04/10 03:27:06;;;;;;;;;;;;;;;;;;5455636;26;19940;-79
2024/04/10 03:29:31;;;;;;;;;;;;;;;;;;5455150;26;19932;-80
2024/04/10 03:31:56;;;;;;;;;;;;;;;;;;5454973;26;19929;-79
2024/04/10 03:34:21;;;;;;;;;;;;;;;;;;5455394;26;19928;-80
2024/04/10 03:36:47;;;;;;;;;;;;;;;;;;5455301;26;19928;-80
2024/04/10 03:39:12;;;;;;;;;;;;;;;;;;5455628;26;19940;-80
2024/04/10 03:41:37;;;;;;;;;;;;;;;;;;5455263;26;19936;-79
2024/04/10 03:44:04;;;;;;;;;;;;;;;;;;5425099;26;19954;-78
2024/04/10 03:46:30;;;;;;;;;;;;;;;;;;5457510;26;19928;-80
2024/04/10 03:48:55;;;;;;;;;;;;;;;;;;5423467;26;19935;-79
2024/04/10 03:51:20;;;;;;;;;;;;;;;;;;5454875;26;19929;-80
2024/04/10 03:53:45;;;;;;;;;;;;;;;;;;5422049;26;19999;-79
2024/04/10 03:56:10;;;;;;;;;;;;;;;;;;5455257;26;19939;-80
2024/04/10 03:58:36;;;;;;;;;;;;;;;;;;5454688;26;19929;-80
2024/04/10 04:01:01;;;;;;;;;;;;;;;;;;5422820;26;19929;-81
2024/04/10 04:03:26;;;;;;;;;;;;;;;;;;5457090;26;19932;-80
2024/04/10 04:05:51;;;;;;;;;;;;;;;;;;5458476;26;19928;-79
2024/04/10 04:08:16;;;;;;;;;;;;;;;;;;5457995;26;20374;-79
2024/04/10 04:10:42;;;;;;;;;;;;;;;;;;5458609;26;20258;-80
2024/04/10 04:13:07;;;;;;;;;;;;;;;;;;5456977;26;20270;-79
2024/04/10 04:15:33;;;;;;;;;;;;;;;;;;5425277;26;20294;-78
2024/04/10 04:17:58;;;;;;;;;;;;;;;;;;5457297;26;19940;-79
2024/04/10 04:20:23;;;;;;;;;;;;;;;;;;5457742;26;20514;-79
2024/04/10 04:22:48;;;;;;;;;;;;;;;;;;5457028;26;19936;-79
2024/04/10 04:25:13;;;;;;;;;;;;;;;;;;5425803;26;19936;-80
2024/04/10 04:27:38;;;;;;;;;;;;;;;;;;5425221;26;19928;-78
2024/04/10 04:30:03;;;;;;;;;;;;;;;;;;5425278;26;19936;-80
2024/04/10 04:32:28;;;;;;;;;;;;;;;;;;5457006;26;19936;-79
2024/04/10 04:34:54;;;;;;;;;;;;;;;;;;5457327;26;19940;-78
2024/04/10 04:37:19;;;;;;;;;;;;;;;;;;5457965;26;19928;-79
2024/04/10 04:39:44;;;;;;;;;;;;;;;;;;5456812;26;19928;-79
2024/04/10 04:42:09;;;;;;;;;;;;;;;;;;5460915;26;19933;-80
2024/04/10 04:44:35;;;;;;;;;;;;;;;;;;5460476;26;20648;-80
2024/04/10 04:47:00;;;;;;;;;;;;;;;;;;5458862;26;19973;-80
2024/04/10 04:49:25;;;;;;;;;;;;;;;;;;5425732;26;20037;-78
2024/04/10 04:51:50;;;;;;;;;;;;;;;;;;5458030;26;19942;-80
2024/04/10 04:54:15;;;;;;;;;;;;;;;;;;5424807;26;19948;-79
2024/04/10 04:56:40;;;;;;;;;;;;;;;;;;5425531;26;19920;-80
2024/04/10 04:59:05;;;;;;;;;;;;;;;;;;5425060;26;19928;-79
2024/04/10 05:01:30;;;;;;;;;;;;;;;;;;5425324;26;19936;-80
2024/04/10 05:06:39;;;;;;;;;;;;;;;;;;5456786;26;19961;-81
2024/04/10 05:09:09;;;;;;;;;;;;;;;;;;5456755;26;19928;-79
2024/04/10 05:11:34;;;;;;;;;;;;;;;;;;5456797;26;19985;-78
2024/04/10 05:13:59;;;;;;;;;;;;;;;;;;5454194;26;19928;-79
2024/04/10 05:16:24;;;;;;;;;;;;;;;;;;5454704;26;19932;-78
2024/04/10 05:18:49;;;;;;;;;;;;;;;;;;5424403;26;19928;-80
2024/04/10 05:21:15;;;;;;;;;;;;;;;;;;5459116;26;19929;-80
2024/04/10 05:23:40;;;;;;;;;;;;;;;;;;5425751;26;19935;-80
2024/04/10 05:26:05;;;;;;;;;;;;;;;;;;5426451;26;19929;-80
2024/04/10 05:28:30;;;;;;;;;;;;;;;;;;5457918;26;19932;-78
2024/04/10 05:30:56;;;;;;;;;;;;;;;;;;5457640;26;19929;-80
2024/04/10 05:33:21;;;;;;;;;;;;;;;;;;5457890;26;20363;-79
2024/04/10 05:35:46;;;;;;;;;;;;;;;;;;5426322;26;20423;-83
2024/04/10 05:38:11;;;;;;;;;;;;;;;;;;5424649;26;19936;-79
2024/04/10 05:40:36;;;;;;;;;;;;;;;;;;5462670;26;19928;-80
2024/04/10 05:43:02;;;;;;;;;;;;;;;;;;5457360;26;19935;-79
2024/04/10 05:45:27;;;;;;;;;;;;;;;;;;5425495;26;19935;-80
2024/04/10 05:47:52;;;;;;;;;;;;;;;;;;5456217;26;19935;-78
2024/04/10 05:50:17;;;;;;;;;;;;;;;;;;5423397;26;19936;-77
2024/04/10 05:52:43;;;;;;;;;;;;;;;;;;5454869;26;19935;-80
2024/04/10 05:55:08;;;;;;;;;;;;;;;;;;5456203;26;19928;-79
2024/04/10 05:57:33;;;;;;;;;;;;;;;;;;5456893;26;20005;-80
2024/04/10 05:59:58;;;;;;;;;;;;;;;;;;5423793;26;19928;-78
2024/04/10 06:02:23;;;;;;;;;;;;;;;;;;5454960;26;19936;-78
2024/04/10 06:04:48;;;;;;;;;;;;;;;;;;5455717;26;19935;-78
2024/04/10 06:07:13;;;;;;;;;;;;;;;;;;5423907;26;19940;-80
2024/04/10 06:09:38;;;;;;;;;;;;;;;;;;5456138;26;20014;-80
2024/04/10 06:12:04;;;;;;;;;;;;;;;;;;5423381;26;19936;-80
2024/04/10 06:14:29;;;;;;;;;;;;;;;;;;5455436;26;19939;-79
2024/04/10 06:16:54;;;;;;;;;;;;;;;;;;5424433;26;19929;-80
2024/04/10 06:19:20;;;;;;;;;;;;;;;;;;5423719;26;19939;-80
2024/04/10 06:21:45;;;;;;;;;;;;;;;;;;5455771;26;20375;-80
2024/04/10 06:24:13;;;;;;;;;;;;;;;;;;5422505;26;20264;-78
2024/04/10 06:26:38;;;;;;;;;;;;;;;;;;5423545;26;19928;-78
2024/04/10 06:29:03;;;;;;;;;;;;;;;;;;5423444;26;19935;-78
2024/04/10 06:31:28;;;;;;;;;;;;;;;;;;5423586;26;19928;-80
2024/04/10 06:33:53;;;;;;;;;;;;;;;;;;5455046;26;19929;-78
2024/04/10 06:36:19;;;;;;;;;;;;;;;;;;5455934;26;19939;-79
2024/04/10 06:38:44;;;;;;;;;;;;;;;;;;5457695;26;19935;-78
2024/04/10 06:41:09;;;;;;;;;;;;;;;;;;5457472;26;19929;-80
2024/04/10 06:43:34;;;;;;;;;;;;;;;;;;5454422;26;19941;-80
2024/04/10 06:45:59;;;;;;;;;;;;;;;;;;5455361;26;19928;-80
2024/04/10 06:48:24;;;;;;;;;;;;;;;;;;5424649;26;20379;-80
2024/04/10 06:50:49;;;;;;;;;;;;;;;;;;5423339;26;20454;-78
2024/04/10 06:53:15;;;;;;;;;;;;;;;;;;5452745;26;20000;-78
2024/04/10 06:55:40;;;;;;;;;;;;;;;;;;5453746;26;20359;-78
2024/04/10 06:58:05;;;;;;;;;;;;;;;;;;5421721;26;19937;-78
2024/04/10 07:00:31;;;;;;;;;;;;;;;;;;5421361;26;19939;-78
2024/04/10 07:02:56;;;;;;;;;;;;;;;;;;5421059;26;20375;-77
2024/04/10 07:05:21;;;;;;;;;;;;;;;;;;5421869;26;19974;-78
2024/04/10 07:07:46;;;;;;;;;;;;;;;;;;5422300;26;19936;-78
2024/04/10 07:10:12;;;;;;;;;;;;;;;;;;5454431;26;19932;-80
2024/04/10 07:12:37;;;;;;;;;;;;;;;;;;5453425;26;19940;-80
2024/04/10 07:15:02;;;;;;;;;;;;;;;;;;5422252;26;20371;-80
2024/04/10 07:17:28;;;;;;;;;;;;;;;;;;5421990;26;19940;-79
2024/04/10 07:19:53;;;;;;;;;;;;;;;;;;5454221;26;20374;-78
2024/04/10 07:22:18;;;;;;;;;;;;;;;;;;5421234;26;20371;-78
2024/04/10 07:24:43;;;;;;;;;;;;;;;;;;5453523;26;19983;-78
2024/04/10 07:27:08;;;;;;;;;;;;;;;;;;5421881;26;19940;-78
2024/04/10 07:29:33;;;;;;;;;;;;;;;;;;5453504;26;19935;-78
2024/04/10 07:31:58;;;;;;;;;;;;;;;;;;5421473;26;19929;-78
2024/04/10 07:34:24;;;;;;;;;;;;;;;;;;5453592;26;19929;-79
2024/04/10 07:36:49;;;;;;;;;;;;;;;;;;5453756;26;19929;-79
2024/04/10 07:39:16;;;;;;;;;;;;;;;;;;5456132;26;19940;-89
2024/04/10 07:41:41;;;;;;;;;;;;;;;;;;5423756;26;19928;-83
2024/04/10 07:44:06;;;;;;;;;;;;;;;;;;5422575;26;19936;-90
2024/04/10 07:46:31;;;;;;;;;;;;;;;;;;5422196;26;19935;-80
2024/04/10 07:48:57;;;;;;;;;;;;;;;;;;5454693;26;19928;-80
2024/04/10 07:51:22;;;;;;;;;;;;;;;;;;5455116;26;19940;-79
2024/04/10 07:53:48;;;;;;;;;;;;;;;;;;5453531;26;19932;-80
2024/04/10 07:56:13;;;;;;;;;;;;;;;;;;5454554;26;19935;-80
2024/04/10 07:58:38;;;;;;;;;;;;;;;;;;5423217;26;19928;-79
2024/04/10 08:01:03;;;;;;;;;;;;;;;;;;5454595;26;19974;-80
2024/04/10 08:03:28;;;;;;;;;;;;;;;;;;5456023;26;20001;-79
2024/04/10 08:05:53;;;;;;;;;;;;;;;;;;5424417;26;19934;-80
2024/04/10 08:08:18;;;;;;;;;;;;;;;;;;5455458;26;19936;-80
2024/04/10 08:10:43;;;;;;;;;;;;;;;;;;5424080;26;20375;-80
2024/04/10 08:13:10;;;;;;;;;;;;;;;;;;5455096;26;19929;-80
2024/04/10 08:15:35;;;;;;;;;;;;;;;;;;5455645;26;19944;-78
2024/04/10 08:18:00;;;;;;;;;;;;;;;;;;5455652;26;19928;-80
2024/04/10 08:20:26;;;;;;;;;;;;;;;;;;5423455;26;19978;-79
2024/04/10 08:22:51;;;;;;;;;;;;;;;;;;5454398;26;20275;-78
2024/04/10 08:25:16;;;;;;;;;;;;;;;;;;5423027;26;19996;-80
2024/04/10 08:27:41;;;;;;;;;;;;;;;;;;5422530;26;19940;-78
2024/04/10 08:30:06;;;;;;;;;;;;;;;;;;5422162;26;19997;-80
2024/04/10 08:32:32;;;;;;;;;;;;;;;;;;5453336;26;19936;-79
2024/04/10 08:34:57;;;;;;;;;;;;;;;;;;5422422;26;20022;-78
2024/04/10 08:37:23;;;;;;;;;;;;;;;;;;5454152;26;19936;-79
2024/04/10 08:39:48;;;;;;;;;;;;;;;;;;5454669;26;20287;-78
2024/04/10 08:42:13;;;;;;;;;;;;;;;;;;5422288;26;19929;-78
2024/04/10 08:44:38;;;;;;;;;;;;;;;;;;5454306;26;19935;-79
2024/04/10 08:47:03;;;;;;;;;;;;;;;;;;5422400;26;19939;-80
2024/04/10 08:49:28;;;;;;;;;;;;;;;;;;5457008;26;19949;-78
2024/04/10 08:51:53;;;;;;;;;;;;;;;;;;5457313;26;19936;-80
2024/04/10 08:54:18;;;;;;;;;;;;;;;;;;5456958;26;20001;-79
2024/04/10 08:56:44;;;;;;;;;;;;;;;;;;5457710;26;19944;-80
2024/04/10 08:59:09;;;;;;;;;;;;;;;;;;5457521;26;19935;-78
2024/04/10 09:01:36;;;;;;;;;;;;;;;;;;5457647;26;19928;-78
2024/04/10 09:04:01;;;;;;;;;;;;;;;;;;5428614;26;19935;-80
2024/04/10 09:06:26;;;;;;;;;;;;;;;;;;5460339;26;20374;-80
2024/04/10 09:08:51;;;;;;;;;;;;;;;;;;5457908;26;19929;-80
2024/04/10 09:11:16;;;;;;;;;;;;;;;;;;5426304;26;19928;-80
2024/04/10 09:13:42;;;;;;;;;;;;;;;;;;5457432;26;19931;-80
2024/04/10 09:16:07;;;;;;;;;;;;;;;;;;5457310;26;19936;-80
2024/04/10 09:18:32;;;;;;;;;;;;;;;;;;5456376;26;19929;-80
2024/04/10 09:20:58;;;;;;;;;;;;;;;;;;5456777;26;19928;-78
2024/04/10 09:23:23;;;;;;;;;;;;;;;;;;5456304;26;19940;-79
2024/04/10 09:25:48;;;;;;;;;;;;;;;;;;5456632;26;19997;-78
2024/04/10 09:28:13;;;;;;;;;;;;;;;;;;5424775;26;19928;-80
2024/04/10 09:30:38;;;;;;;;;;;;;;;;;;5424780;26;19929;-78
2024/04/10 09:33:03;;;;;;;;;;;;;;;;;;5457228;26;19954;-80
2024/04/10 09:35:28;;;;;;;;;;;;;;;;;;5424669;26;19929;-79
2024/04/10 09:37:53;;;;;;;;;;;;;;;;;;5457297;26;20378;-80
2024/04/10 09:40:18;;;;;;;;;;;;;;;;;;5424784;26;20359;-80
2024/04/10 09:42:44;;;;;;;;;;;;;;;;;;5456647;26;19928;-80
2024/04/10 09:45:15;;;;;;;;;;;;;;;;;;5424266;26;19974;-80
2024/04/10 09:47:40;;;;;;;;;;;;;;;;;;5425112;26;19929;-80
2024/04/10 09:50:05;;;;;;;;;;;;;;;;;;5456365;26;19934;-80
2024/04/10 09:52:31;;;;;;;;;;;;;;;;;;5456529;26;19933;-79
2024/04/10 09:54:56;;;;;;;;;;;;;;;;;;5455969;26;19929;-80
2024/04/10 09:57:21;;;;;;;;;;;;;;;;;;5456791;26;19935;-79
2024/04/10 09:59:46;;;;;;;;;;;;;;;;;;5455284;26;19928;-80
2024/04/10 10:02:11;;;;;;;;;;;;;;;;;;5455268;26;20278;-79
2024/04/10 10:04:36;;;;;;;;;;;;;;;;;;5423498;26;19928;-80
2024/04/10 10:07:01;;;;;;;;;;;;;;;;;;5456371;26;19928;-78
2024/04/10 10:09:27;;;;;;;;;;;;;;;;;;5422074;26;19994;-79
2024/04/10 10:11:52;;;;;;;;;;;;;;;;;;5454968;26;19944;-78
2024/04/10 10:14:19;;;;;;;;;;;;;;;;;;5454205;26;19994;-78
2024/04/10 10:16:44;;;;;;;;;;;;;;;;;;5422531;26;19928;-79
2024/04/10 10:19:10;;;;;;;;;;;;;;;;;;5453968;26;19935;-77
2024/04/10 10:21:35;;;;;;;;;;;;;;;;;;5454322;26;19944;-79
2024/04/10 10:24:00;;;;;;;;;;;;;;;;;;5422682;26;20001;-78
2024/04/10 10:26:25;;;;;;;;;;;;;;;;;;5423822;26;19932;-79
2024/04/10 10:28:50;;;;;;;;;;;;;;;;;;5454601;26;19944;-78
2024/04/10 10:31:19;;;;;;;;;;;;;;;;;;5422816;26;19928;-79
2024/04/10 10:33:44;;;;;;;;;;;;;;;;;;5453837;26;19936;-78
2024/04/10 10:36:09;;;;;;;;;;;;;;;;;;5423154;26;19929;-79
2024/04/10 10:38:34;;;;;;;;;;;;;;;;;;5455034;26;20140;-78
2024/04/10 10:40:59;;;;;;;;;;;;;;;;;;5455249;26;20275;-80
2024/04/10 10:43:25;;;;;;;;;;;;;;;;;;5457125;26;20073;-79
2024/04/10 10:45:50;;;;;;;;;;;;;;;;;;5425497;26;19932;-80
2024/04/10 10:48:15;;;;;;;;;;;;;;;;;;5457539;26;20367;-79
2024/04/10 10:50:41;;;;;;;;;;;;;;;;;;5425339;26;19935;-80
2024/04/10 10:53:08;;;;;;;;;;;;;;;;;;5424240;26;19936;-80
2024/04/10 10:55:34;;;;;;;;;;;;;;;;;;5425195;26;19933;-80
2024/04/10 10:57:59;;;;;;;;;;;;;;;;;;5424391;26;19936;-81
2024/04/10 11:00:28;;;;;;;;;;;;;;;;;;5456116;26;19929;-80
2024/04/10 11:02:53;;;;;;;;;;;;;;;;;;5455630;26;19935;-80
2024/04/10 11:05:18;;;;;;;;;;;;;;;;;;5420430;26;19928;-80
2024/04/10 11:07:43;;;;;;;;;;;;;;;;;;5455474;26;19929;-80
2024/04/10 11:10:08;;;;;;;;;;;;;;;;;;5424802;26;19933;-80
2024/04/10 11:12:33;;;;;;;;;;;;;;;;;;5453974;26;19929;-80
2024/04/10 11:14:58;;;;;;;;;;;;;;;;;;5421878;26;19929;-78
2024/04/10 11:17:29;;;;;;;;;;;;;;;;;;5454091;26;19997;-80
2024/04/10 11:19:54;;;;;;;;;;;;;;;;;;5453331;26;19928;-78
2024/04/10 11:22:19;;;;;;;;;;;;;;;;;;5421723;26;19997;-81
2024/04/10 11:24:45;;;;;;;;;;;;;;;;;;5453473;26;19932;-79
2024/04/10 11:27:12;;;;;;;;;;;;;;;;;;5419978;26;19935;-81
2024/04/10 11:29:37;;;;;;;;;;;;;;;;;;5421686;26;19928;-81
2024/04/10 11:33:39;;;;;;;;;;;;;;;;;;5562147;25;19934;-80
2024/04/10 11:36:04;;;;;;;;;;;;;;;;;;5514924;25;19927;-80
2024/04/10 11:38:29;;;;;;;;;;;;;;;;;;5546699;25;19928;-80
2024/04/10 11:40:54;;;;;;;;;;;;;;;;;;5514853;25;19938;-80
2024/04/10 11:43:20;;;;;;;;;;;;;;;;;;5546123;25;19983;-79
2024/04/10 11:45:49;;;;;;;;;;;;;;;;;;5512496;25;19927;-79
2024/04/10 11:48:14;;;;;;;;;;;;;;;;;;5513133;25;19927;-79
2024/04/10 11:50:39;;;;;;;;;;;;;;;;;;5546375;25;19927;-80
2024/04/10 11:53:04;;;;;;;;;;;;;;;;;;5545817;25;19933;-80
2024/04/10 11:55:29;;;;;;;;;;;;;;;;;;5546308;25;19953;-79
2024/04/10 11:57:54;;;;;;;;;;;;;;;;;;5512097;25;19935;-80
2024/04/10 12:00:19;;;;;;;;;;;;;;;;;;5512754;25;20258;-80
2024/04/10 12:02:44;;;;;;;;;;;;;;;;;;5514152;25;19939;-81
2024/04/10 12:05:09;;;;;;;;;;;;;;;;;;5514335;25;19967;-81
2024/04/10 12:07:35;;;;;;;;;;;;;;;;;;5546693;25;19942;-80
2024/04/10 12:10:00;;;;;;;;;;;;;;;;;;5514630;25;20326;-81
2024/04/10 12:12:25;;;;;;;;;;;;;;;;;;5545239;25;19935;-81
2024/04/10 12:14:50;;;;;;;;;;;;;;;;;;5545852;25;19927;-80
2024/04/10 12:17:16;;;;;;;;;;;;;;;;;;5513628;25;19927;-81
2024/04/10 12:19:41;;;;;;;;;;;;;;;;;;5546259;25;19928;-81
2024/04/10 12:22:06;;;;;;;;;;;;;;;;;;5545165;25;19996;-79
2024/04/10 12:24:34;;;;;;;;;;;;;;;;;;5546031;25;19995;-79
2024/04/10 12:27:00;;;;;;;;;;;;;;;;;;5545917;25;20315;-79
2024/04/10 12:29:25;;;;;;;;;;;;;;;;;;5546147;25;19939;-79
2024/04/10 12:31:50;;;;;;;;;;;;;;;;;;5513249;25;19934;-80
2024/04/10 12:34:15;;;;;;;;;;;;;;;;;;5512438;25;19935;-79
2024/04/10 12:39:26;;;;;;;;;;;;;;;;;;5546097;25;19930;-80
2024/04/10 12:41:51;;;;;;;;;;;;;;;;;;5545684;25;19934;-81
2024/04/10 12:44:19;;;;;;;;;;;;;;;;;;5517758;25;19927;-81
2024/04/10 12:46:44;;;;;;;;;;;;;;;;;;5529755;25;19927;-80
2024/04/10 12:49:09;;;;;;;;;;;;;;;;;;5529360;26;19927;-80
2024/04/10 12:51:34;;;;;;;;;;;;;;;;;;5497556;26;19935;-80
2024/04/10 12:53:59;;;;;;;;;;;;;;;;;;5529776;25;19938;-80
2024/04/10 12:56:24;;;;;;;;;;;;;;;;;;5529810;25;19994;-79
2024/04/10 12:58:50;;;;;;;;;;;;;;;;;;5496782;26;19980;-80
2024/04/10 13:01:15;;;;;;;;;;;;;;;;;;5530050;25;19928;-77
2024/04/10 13:03:40;;;;;;;;;;;;;;;;;;5528917;25;19939;-79
2024/04/10 13:06:05;;;;;;;;;;;;;;;;;;5530073;26;19938;-80
2024/04/10 13:08:30;;;;;;;;;;;;;;;;;;5530368;25;19927;-80
2024/04/10 13:10:55;;;;;;;;;;;;;;;;;;5529525;25;19928;-81
2024/04/10 13:13:20;;;;;;;;;;;;;;;;;;5528117;25;19934;-79
2024/04/10 13:15:45;;;;;;;;;;;;;;;;;;5529909;25;19939;-80
2024/04/10 13:18:11;;;;;;;;;;;;;;;;;;5529564;25;20263;-79
2024/04/10 13:20:36;;;;;;;;;;;;;;;;;;5529300;25;19928;-80
2024/04/10 13:23:01;;;;;;;;;;;;;;;;;;5496550;25;19935;-79
2024/04/10 13:25:26;;;;;;;;;;;;;;;;;;5532325;26;19927;-80
2024/04/10 13:27:51;;;;;;;;;;;;;;;;;;5499964;25;19935;-80
2024/04/10 13:30:16;;;;;;;;;;;;;;;;;;5531798;26;19931;-81
2024/04/10 13:32:42;;;;;;;;;;;;;;;;;;5498415;25;19934;-80
2024/04/10 13:35:07;;;;;;;;;;;;;;;;;;5498506;26;19942;-80
2024/04/10 13:37:32;;;;;;;;;;;;;;;;;;5530994;26;19927;-81
2024/04/10 13:39:57;;;;;;;;;;;;;;;;;;5530773;25;19942;-79
2024/04/10 13:42:22;;;;;;;;;;;;;;;;;;5530488;25;19934;-80
2024/04/10 13:44:48;;;;;;;;;;;;;;;;;;5530845;25;19980;-80
2024/04/10 13:47:13;;;;;;;;;;;;;;;;;;5530428;25;19927;-81
2024/04/10 13:49:39;;;;;;;;;;;;;;;;;;5530074;26;19927;-80
2024/04/10 13:52:04;;;;;;;;;;;;;;;;;;5529353;26;19928;-79
2024/04/10 13:54:29;;;;;;;;;;;;;;;;;;5496818;26;19938;-80
2024/04/10 13:56:54;;;;;;;;;;;;;;;;;;5500333;25;19927;-80
2024/04/10 13:59:19;;;;;;;;;;;;;;;;;;5497659;26;19928;-81
2024/04/10 14:01:47;;;;;;;;;;;;;;;;;;5496446;26;19927;-80
2024/04/10 14:04:13;;;;;;;;;;;;;;;;;;5528462;25;19939;-81
2024/04/10 14:06:38;;;;;;;;;;;;;;;;;;5528778;26;19931;-79
2024/04/10 14:09:05;;;;;;;;;;;;;;;;;;5496366;26;20393;-79
2024/04/10 14:11:30;;;;;;;;;;;;;;;;;;5495946;26;20365;-81
2024/04/10 14:13:55;;;;;;;;;;;;;;;;;;5495551;26;20434;-81
2024/04/10 14:16:20;;;;;;;;;;;;;;;;;;5528887;26;19927;-81
2024/04/10 14:18:45;;;;;;;;;;;;;;;;;;5528743;25;19927;-80
2024/04/10 14:21:11;;;;;;;;;;;;;;;;;;5495255;26;19928;-81
2024/04/10 14:23:36;;;;;;;;;;;;;;;;;;5495012;26;19935;-81
2024/04/10 14:26:01;;;;;;;;;;;;;;;;;;5495210;25;20492;-79
2024/04/10 14:28:28;;;;;;;;;;;;;;;;;;5495678;26;20452;-80
2024/04/10 14:30:53;;;;;;;;;;;;;;;;;;5528460;26;19927;-80
2024/04/10 14:33:18;;;;;;;;;;;;;;;;;;5493487;26;19991;-80
2024/04/10 14:35:43;;;;;;;;;;;;;;;;;;5480995;26;19927;-80
2024/04/10 14:38:09;;;;;;;;;;;;;;;;;;5495055;26;19963;-80
2024/04/10 14:40:34;;;;;;;;;;;;;;;;;;5512677;25;19991;-79
2024/04/10 14:42:59;;;;;;;;;;;;;;;;;;5527194;25;19927;-80
2024/04/10 14:45:24;;;;;;;;;;;;;;;;;;5494629;26;19959;-80
2024/04/10 14:47:49;;;;;;;;;;;;;;;;;;5495013;26;19927;-81
2024/04/10 14:50:14;;;;;;;;;;;;;;;;;;5527416;25;19935;-80
2024/04/10 14:52:39;;;;;;;;;;;;;;;;;;5493532;25;19927;-79
2024/04/10 14:55:05;;;;;;;;;;;;;;;;;;5527400;25;19928;-78
2024/04/10 14:57:30;;;;;;;;;;;;;;;;;;5494808;26;19927;-79
2024/04/10 14:59:55;;;;;;;;;;;;;;;;;;5527086;25;19935;-80
2024/04/10 15:02:20;;;;;;;;;;;;;;;;;;5492523;26;19946;-79
2024/04/10 15:04:46;;;;;;;;;;;;;;;;;;5525762;25;19927;-79
2024/04/10 15:07:11;;;;;;;;;;;;;;;;;;5525514;25;19972;-80
2024/04/10 15:09:36;;;;;;;;;;;;;;;;;;5493035;25;19939;-79
2024/04/10 15:12:01;;;;;;;;;;;;;;;;;;5493309;26;19935;-80
2024/04/10 15:14:26;;;;;;;;;;;;;;;;;;5480443;26;19928;-80
2024/04/10 15:16:51;;;;;;;;;;;;;;;;;;5493457;26;19937;-80
2024/04/10 15:19:16;;;;;;;;;;;;;;;;;;5493011;26;19996;-79
2024/04/10 15:21:42;;;;;;;;;;;;;;;;;;5526079;25;19939;-79
2024/04/10 15:24:07;;;;;;;;;;;;;;;;;;5525844;25;20317;-80
2024/04/10 15:26:32;;;;;;;;;;;;;;;;;;5526690;25;20020;-79
2024/04/10 15:28:57;;;;;;;;;;;;;;;;;;5526357;26;19927;-79
2024/04/10 15:31:23;;;;;;;;;;;;;;;;;;5493992;26;19936;-79
2024/04/10 15:33:48;;;;;;;;;;;;;;;;;;5484676;26;19928;-80
2024/04/10 15:36:14;;;;;;;;;;;;;;;;;;5487151;26;20312;-81
2024/04/10 15:38:39;;;;;;;;;;;;;;;;;;5526058;26;19939;-81
2024/04/10 15:41:04;;;;;;;;;;;;;;;;;;5493731;26;20357;-80
2024/04/10 15:43:29;;;;;;;;;;;;;;;;;;5493335;26;20350;-81
2024/04/10 15:45:54;;;;;;;;;;;;;;;;;;5494254;26;19927;-79
2024/04/10 15:48:19;;;;;;;;;;;;;;;;;;5526716;26;19931;-81
2024/04/10 15:50:45;;;;;;;;;;;;;;;;;;5494131;26;19928;-79
2024/04/10 15:53:10;;;;;;;;;;;;;;;;;;5500209;26;19934;-79
2024/04/10 15:55:35;;;;;;;;;;;;;;;;;;5529402;26;19935;-81
2024/04/10 15:58:01;;;;;;;;;;;;;;;;;;5494022;26;19971;-79
2024/04/10 16:00:26;;;;;;;;;;;;;;;;;;5526825;25;19927;-81
2024/04/10 16:02:51;;;;;;;;;;;;;;;;;;5493687;25;19942;-81
2024/04/10 16:05:16;;;;;;;;;;;;;;;;;;5495352;26;20382;-81
2024/04/10 16:07:41;;;;;;;;;;;;;;;;;;5513279;26;20422;-80
2024/04/10 16:10:07;;;;;;;;;;;;;;;;;;5529250;25;19993;-81
2024/04/10 16:12:32;;;;;;;;;;;;;;;;;;5494916;26;20381;-81
2024/04/10 16:14:57;;;;;;;;;;;;;;;;;;5495238;26;19927;-80
2024/04/10 16:17:22;;;;;;;;;;;;;;;;;;5527878;25;19939;-81
2024/04/10 16:19:47;;;;;;;;;;;;;;;;;;5530262;25;19935;-80
2024/04/10 16:22:13;;;;;;;;;;;;;;;;;;5531676;26;19935;-79
2024/04/10 16:24:38;;;;;;;;;;;;;;;;;;5499069;25;19934;-81
2024/04/10 16:27:03;;;;;;;;;;;;;;;;;;5531719;25;19928;-80
2024/04/10 16:29:28;;;;;;;;;;;;;;;;;;5530998;26;19927;-80
2024/04/10 16:31:53;;;;;;;;;;;;;;;;;;5497470;26;19938;-81
2024/04/10 16:34:18;;;;;;;;;;;;;;;;;;5496801;26;19928;-80
2024/04/10 16:36:43;;;;;;;;;;;;;;;;;;5531408;25;19976;-81
2024/04/10 16:39:08;;;;;;;;;;;;;;;;;;5484695;26;19928;-79